Weather at Spydeberg Airstrip

Public forecast

Using degrees Celsius for public forecast. Weather courtesy of forecast.io.

Closest aviation weather report (METAR) to Spydeberg Airstrip

Closest report is Moss Airport, Rygge, 19.9 nm (36.9 km) SSW. Retrieved 2021/04/12 00:20 UTC (34 minutes ago):

ENRY 120020Z AUTO 01009KT 9999NDV -RA FEW014/// OVC030/// 01/M00 Q1012 RESG

Closest aviation forecast (TAF) to Spydeberg Airstrip

Closest forecast is Moss Airport, Rygge, 19.9 nm (36.9 km) SSW. Retrieved 2021-04-12 00:57 UTC (0 seconds ago):

TAF ENRY 112300Z 1200/1224 04008KT 9999 -RASN SCT010 BKN015 TEMPO 1200/1214 1200 SN VV004 PROB40 TEMPO 1214/1224 1200 SHSN BKN008 FEW020CB